Kykotsmovi, Arizona
Current Conditions -  °F | °C
As of 2:56 PM on Thursday 27 Nov 2014 (Local Time) from KINW Reporting Station
Clear Clear  
Wind Chill: 62°   Ceiling: Unl
Heat Index: 62°   Visibility: 10mi
Dew Point: 18°   Wind: 0mph
Humidity: 18%   Direction: NA
Pressure: 30.33"   Gusts: NA
Location:  35.8773°N, 110.619°W
Report Text: KINW 272156Z AUTO 00000KT 10SM CLR 17/M08 A3033 RMK AO2 SLP259 T01671078
Loading
Personal Weather Stations






























Interactive Weather Map New forecast layout! Learn more

10-Day Weather Forecast

Advertisements
Track Severe Weather on mobile